Time;durP1;ratioP1;P1;durP2;ratioP2;P2;SDS_P1;SDS_P2;PMS_P1;PMS_P2;Temp;Humidity;BMP_temperature;BMP_pressure;BME280_temperature;BME280_humidity;BME280_pressure;Samples;Min_cycle;Max_cycle;Signal;HPM_P1;HPM_P2
2022/06/07 00:00:41;;;;;;;37.45;8.93;;;;;;;;;;5056602;28;20402;-46
2022/06/07 00:03:08;;;;;;;30.25;7.00;;;;;;;;;;5053713;28;20072;-45
2022/06/07 00:05:35;;;;;;;35.03;7.63;;;;;;;;;;5049969;28;20025;-52
2022/06/07 00:08:02;;;;;;;65.93;8.73;;;;;;;;;;5050103;28;20028;-53
2022/06/07 00:10:29;;;;;;;61.05;9.40;;;;;;;;;;5049830;28;20025;-57
2022/06/07 00:16:06;;;;;;;34.30;7.80;;;;;;;;;;4986704;28;20427;-60
2022/06/07 00:18:33;;;;;;;37.55;7.45;;;;;;;;;;5010209;28;20026;-60
2022/06/07 00:21:01;;;;;;;36.90;8.23;;;;;;;;;;5009872;28;20547;-60
2022/06/07 00:23:28;;;;;;;34.67;8.30;;;;;;;;;;5010529;28;20033;-59
2022/06/07 00:25:55;;;;;;;35.38;8.60;;;;;;;;;;5010888;28;20026;-60
2022/06/07 00:28:23;;;;;;;32.70;7.85;;;;;;;;;;5003878;28;20056;-60
2022/06/07 00:30:50;;;;;;;36.15;8.88;;;;;;;;;;4998202;28;20037;-58
2022/06/07 00:33:17;;;;;;;33.55;8.02;;;;;;;;;;5006163;28;20088;-60
2022/06/07 00:35:45;;;;;;;45.97;8.88;;;;;;;;;;5009444;28;20034;-59
2022/06/07 00:38:11;;;;;;;37.28;7.60;;;;;;;;;;5010603;28;20507;-53
2022/06/07 00:40:39;;;;;;;28.73;7.65;;;;;;;;;;5009713;28;20030;-59
2022/06/07 00:43:06;;;;;;;34.72;7.78;;;;;;;;;;5009699;28;20026;-59
2022/06/07 00:45:33;;;;;;;38.08;7.45;;;;;;;;;;5009785;28;20080;-61
2022/06/07 00:48:00;;;;;;;31.00;7.35;;;;;;;;;;5010555;28;20022;-60
2022/06/07 00:50:31;;;;;;;34.80;6.85;;;;;;;;;;4992663;28;20072;-61
2022/06/07 00:52:59;;;;;;;31.15;6.05;;;;;;;;;;5009532;28;20038;-61
2022/06/07 00:55:26;;;;;;;28.23;7.18;;;;;;;;;;5010575;28;20511;-60
2022/06/07 00:57:53;;;;;;;21.52;6.40;;;;;;;;;;5008931;28;20041;-60
2022/06/07 01:00:24;;;;;;;29.85;6.55;;;;;;;;;;5010669;28;20068;-61
2022/06/07 01:02:52;;;;;;;28.40;6.70;;;;;;;;;;5010111;28;20037;-59
2022/06/07 01:05:19;;;;;;;35.00;7.53;;;;;;;;;;5009386;28;20057;-60
2022/06/07 01:10:44;;;;;;;29.77;5.72;;;;;;;;;;5010710;28;20117;-60
2022/06/07 01:13:11;;;;;;;22.75;6.15;;;;;;;;;;5011868;28;20088;-60
2022/06/07 01:15:38;;;;;;;23.00;5.93;;;;;;;;;;5013498;28;20545;-57
2022/06/07 01:18:05;;;;;;;24.52;5.57;;;;;;;;;;4996477;28;20403;-59
2022/06/07 01:20:32;;;;;;;39.00;6.60;;;;;;;;;;5013417;28;20109;-60
2022/06/07 01:22:59;;;;;;;27.30;5.93;;;;;;;;;;5013257;28;20018;-60
2022/06/07 01:25:26;;;;;;;19.45;5.38;;;;;;;;;;5013884;28;20034;-60
2022/06/07 01:27:53;;;;;;;21.48;5.10;;;;;;;;;;5012404;28;20113;-60
2022/06/07 01:30:21;;;;;;;20.13;5.40;;;;;;;;;;5013896;28;20467;-60
2022/06/07 01:32:48;;;;;;;23.88;5.95;;;;;;;;;;5012738;28;20037;-60
2022/06/07 01:35:15;;;;;;;16.33;5.22;;;;;;;;;;4995699;28;20128;-60
2022/06/07 01:37:42;;;;;;;24.13;5.82;;;;;;;;;;5013567;28;20060;-60
2022/06/07 01:42:55;;;;;;;18.48;5.05;;;;;;;;;;5012380;28;20115;-60
2022/06/07 01:45:22;;;;;;;25.50;5.25;;;;;;;;;;5012908;28;20491;-60
2022/06/07 01:47:49;;;;;;;17.40;5.75;;;;;;;;;;5013435;28;20103;-60
2022/06/07 01:50:17;;;;;;;16.80;5.18;;;;;;;;;;5012444;28;20483;-60
2022/06/07 01:52:44;;;;;;;16.13;4.60;;;;;;;;;;5012571;28;20034;-60
2022/06/07 01:55:11;;;;;;;16.42;5.15;;;;;;;;;;5012926;28;20030;-60
2022/06/07 01:57:38;;;;;;;11.20;4.10;;;;;;;;;;5012762;28;20484;-61
2022/06/07 02:00:05;;;;;;;16.35;4.70;;;;;;;;;;5013025;28;20032;-60
2022/06/07 02:02:32;;;;;;;22.80;5.00;;;;;;;;;;5012709;28;20034;-59
2022/06/07 02:04:59;;;;;;;13.63;4.93;;;;;;;;;;5012643;28;20041;-60
2022/06/07 02:07:26;;;;;;;14.70;3.88;;;;;;;;;;5012597;28;20045;-61
2022/06/07 02:09:53;;;;;;;16.70;4.82;;;;;;;;;;4995654;28;20101;-61
2022/06/07 02:12:20;;;;;;;18.50;4.00;;;;;;;;;;5012734;28;20395;-53
2022/06/07 02:14:47;;;;;;;30.65;4.97;;;;;;;;;;5012616;28;20037;-60
2022/06/07 02:17:14;;;;;;;32.72;4.40;;;;;;;;;;5012562;28;20030;-60
2022/06/07 02:19:42;;;;;;;16.08;3.95;;;;;;;;;;5012329;28;20514;-60
2022/06/07 02:22:09;;;;;;;20.65;4.55;;;;;;;;;;5013367;28;20514;-60
2022/06/07 02:24:36;;;;;;;36.42;5.03;;;;;;;;;;5013122;28;20483;-59
2022/06/07 02:27:05;;;;;;;16.52;4.13;;;;;;;;;;5013902;28;20033;-57
2022/06/07 02:29:40;;;;;;;17.92;3.95;;;;;;;;;;5013735;28;20034;-59
2022/06/07 02:32:09;;;;;;;30.35;3.95;;;;;;;;;;5013661;28;20030;-60
2022/06/07 02:34:38;;;;;;;20.52;3.90;;;;;;;;;;5013721;28;20073;-58
2022/06/07 02:37:06;;;;;;;19.73;3.90;;;;;;;;;;5013142;28;20045;-60
2022/06/07 02:39:35;;;;;;;15.00;3.85;;;;;;;;;;5013409;28;20103;-59
2022/06/07 02:42:03;;;;;;;16.13;3.80;;;;;;;;;;5013794;28;20033;-59
2022/06/07 02:44:30;;;;;;;14.00;4.07;;;;;;;;;;5013128;28;20030;-56
2022/06/07 02:46:57;;;;;;;13.55;3.53;;;;;;;;;;5013634;28;20526;-58
2022/06/07 02:49:23;;;;;;;15.93;3.95;;;;;;;;;;5013116;28;20102;-60
2022/06/07 02:51:50;;;;;;;16.48;3.42;;;;;;;;;;5013220;28;20110;-59
2022/06/07 02:54:17;;;;;;;13.40;3.03;;;;;;;;;;5013418;28;20394;-58
2022/06/07 02:56:44;;;;;;;22.17;3.72;;;;;;;;;;5012746;28;20447;-59
2022/06/07 02:59:11;;;;;;;11.82;3.63;;;;;;;;;;5013416;28;20037;-60
2022/06/07 03:01:38;;;;;;;14.35;3.70;;;;;;;;;;5012950;28;20030;-60
2022/06/07 03:04:05;;;;;;;13.55;3.55;;;;;;;;;;4995672;28;20053;-60
2022/06/07 03:06:32;;;;;;;11.77;3.40;;;;;;;;;;5012563;28;20018;-60
2022/06/07 03:08:59;;;;;;;16.90;3.38;;;;;;;;;;5013568;28;20084;-60
2022/06/07 03:11:26;;;;;;;18.25;3.53;;;;;;;;;;5013072;28;20036;-59
2022/06/07 03:13:53;;;;;;;9.80;2.95;;;;;;;;;;5012720;28;20054;-60
2022/06/07 03:16:20;;;;;;;14.57;3.33;;;;;;;;;;5012295;28;20507;-60
2022/06/07 03:18:47;;;;;;;20.40;3.50;;;;;;;;;;4995139;28;20026;-60
2022/06/07 03:21:14;;;;;;;8.77;3.60;;;;;;;;;;5012948;28;20114;-59
2022/06/07 03:23:41;;;;;;;13.57;3.38;;;;;;;;;;4995351;28;20029;-59
2022/06/07 03:26:10;;;;;;;10.25;2.90;;;;;;;;;;4994894;28;20026;-59
2022/06/07 03:28:37;;;;;;;10.70;3.42;;;;;;;;;;5012834;28;20101;-58
2022/06/07 03:31:09;;;;;;;12.00;3.20;;;;;;;;;;5012664;28;20045;-58
2022/06/07 03:33:36;;;;;;;12.88;3.25;;;;;;;;;;4995104;28;20512;-59
2022/06/07 03:36:07;;;;;;;8.95;2.83;;;;;;;;;;5011788;28;20053;-59
2022/06/07 03:38:34;;;;;;;10.00;2.90;;;;;;;;;;5012775;28;20034;-59
2022/06/07 03:41:01;;;;;;;10.90;3.30;;;;;;;;;;5012826;28;20436;-59
2022/06/07 03:43:28;;;;;;;15.15;3.22;;;;;;;;;;5012614;28;20125;-59
2022/06/07 03:45:55;;;;;;;10.02;2.92;;;;;;;;;;5012605;28;20030;-58
2022/06/07 03:48:22;;;;;;;14.00;3.33;;;;;;;;;;5011736;28;20547;-59
2022/06/07 03:50:49;;;;;;;10.65;2.67;;;;;;;;;;5012898;28;20029;-58
2022/06/07 03:53:16;;;;;;;10.55;2.80;;;;;;;;;;5012476;28;20030;-58
2022/06/07 03:55:47;;;;;;;7.22;2.85;;;;;;;;;;5012361;28;20036;-59
2022/06/07 03:58:14;;;;;;;14.70;2.70;;;;;;;;;;5012821;28;20479;-59
2022/06/07 04:00:42;;;;;;;8.32;2.90;;;;;;;;;;5011932;28;20018;-58
2022/06/07 04:03:09;;;;;;;7.90;2.70;;;;;;;;;;5012690;28;20515;-59
2022/06/07 04:05:40;;;;;;;6.88;2.47;;;;;;;;;;5012029;28;20042;-59
2022/06/07 04:08:13;;;;;;;8.90;2.60;;;;;;;;;;5012587;28;20541;-59
2022/06/07 04:10:51;;;;;;;8.50;2.75;;;;;;;;;;5012126;28;20037;-58
2022/06/07 04:13:19;;;;;;;8.45;2.50;;;;;;;;;;5012013;28;20030;-59
2022/06/07 04:15:46;;;;;;;10.13;2.78;;;;;;;;;;5012007;28;20057;-59
2022/06/07 04:18:13;;;;;;;5.80;2.45;;;;;;;;;;5011645;28;20026;-59
2022/06/07 04:20:40;;;;;;;9.80;2.58;;;;;;;;;;5011887;28;20060;-59
2022/06/07 04:23:08;;;;;;;9.13;2.55;;;;;;;;;;5012236;28;20458;-59
2022/06/07 04:25:36;;;;;;;8.05;2.15;;;;;;;;;;5011492;28;20029;-58
2022/06/07 04:28:03;;;;;;;5.75;2.67;;;;;;;;;;5012491;28;20574;-59
2022/06/07 04:30:31;;;;;;;6.10;2.15;;;;;;;;;;5011525;28;20030;-59
2022/06/07 04:32:58;;;;;;;8.32;2.30;;;;;;;;;;5012188;28;20068;-59
2022/06/07 04:35:28;;;;;;;8.05;2.45;;;;;;;;;;5011928;28;20144;-59
2022/06/07 04:37:55;;;;;;;4.88;1.85;;;;;;;;;;5011810;28;20022;-59
2022/06/07 04:40:23;;;;;;;7.00;2.42;;;;;;;;;;5012318;28;20452;-59
2022/06/07 04:42:50;;;;;;;9.73;3.00;;;;;;;;;;5011386;28;20030;-59
2022/06/07 04:45:17;;;;;;;5.50;2.20;;;;;;;;;;5012198;28;20026;-59
2022/06/07 04:47:45;;;;;;;6.50;2.00;;;;;;;;;;5014796;28;20527;-60
2022/06/07 04:50:15;;;;;;;7.60;2.63;;;;;;;;;;5018332;28;20468;-60
2022/06/07 04:52:43;;;;;;;10.13;2.45;;;;;;;;;;5018413;28;20075;-60
2022/06/07 04:55:10;;;;;;;6.10;2.30;;;;;;;;;;5017871;28;20038;-60
2022/06/07 04:57:37;;;;;;;6.40;2.45;;;;;;;;;;5018769;28;20543;-60
2022/06/07 05:00:06;;;;;;;5.25;1.80;;;;;;;;;;5018215;28;20034;-59
2022/06/07 05:02:34;;;;;;;5.57;1.90;;;;;;;;;;5017632;28;20034;-60
2022/06/07 05:05:01;;;;;;;4.40;2.00;;;;;;;;;;5018063;28;20046;-60
2022/06/07 05:07:28;;;;;;;7.07;2.30;;;;;;;;;;5018306;28;20056;-60
2022/06/07 05:09:55;;;;;;;5.25;1.80;;;;;;;;;;5017905;28;20029;-60
2022/06/07 05:12:22;;;;;;;5.97;2.33;;;;;;;;;;5017497;28;20076;-60
2022/06/07 05:14:49;;;;;;;5.85;2.10;;;;;;;;;;5017857;28;20056;-60
2022/06/07 05:17:17;;;;;;;8.45;2.40;;;;;;;;;;5017458;28;20069;-60
2022/06/07 05:19:44;;;;;;;6.63;2.05;;;;;;;;;;5017651;28;20466;-59
2022/06/07 05:22:11;;;;;;;5.30;1.95;;;;;;;;;;5018251;28;20387;-59
2022/06/07 05:24:38;;;;;;;6.95;2.00;;;;;;;;;;5017416;28;20092;-60
2022/06/07 05:27:06;;;;;;;9.18;2.33;;;;;;;;;;5018435;28;20040;-59
2022/06/07 05:29:45;;;;;;;5.78;2.00;;;;;;;;;;5017905;28;20030;-60
2022/06/07 05:32:12;;;;;;;8.52;2.17;;;;;;;;;;5018109;28;20446;-60
2022/06/07 05:34:39;;;;;;;7.15;2.25;;;;;;;;;;5000170;28;20037;-60
2022/06/07 05:37:06;;;;;;;4.65;1.98;;;;;;;;;;5017511;28;20057;-60
2022/06/07 05:39:33;;;;;;;5.70;2.13;;;;;;;;;;5017712;28;20026;-59
2022/06/07 05:42:00;;;;;;;7.13;2.10;;;;;;;;;;5018057;28;20022;-60
2022/06/07 05:44:28;;;;;;;6.20;1.83;;;;;;;;;;5017313;28;20040;-60
2022/06/07 05:46:55;;;;;;;5.05;1.80;;;;;;;;;;5017450;28;20022;-59
2022/06/07 05:49:21;;;;;;;6.63;2.08;;;;;;;;;;5017843;28;20022;-59
2022/06/07 05:51:48;;;;;;;4.75;2.05;;;;;;;;;;5017885;28;20040;-59
2022/06/07 05:54:16;;;;;;;4.72;1.92;;;;;;;;;;5017318;28;20022;-59
2022/06/07 05:56:43;;;;;;;6.45;2.22;;;;;;;;;;5017732;28;20033;-59
2022/06/07 05:59:10;;;;;;;5.47;1.88;;;;;;;;;;5014993;28;20026;-59
2022/06/07 06:01:37;;;;;;;5.63;1.85;;;;;;;;;;5015024;28;20418;-59
2022/06/07 06:04:06;;;;;;;6.90;2.15;;;;;;;;;;5013994;28;20111;-57
2022/06/07 06:06:34;;;;;;;5.32;1.65;;;;;;;;;;5014376;28;20395;-59
2022/06/07 06:11:47;;;;;;;4.22;1.73;;;;;;;;;;5014936;28;20044;-59
2022/06/07 06:14:14;;;;;;;4.75;1.63;;;;;;;;;;5013490;28;20060;-59
2022/06/07 06:16:41;;;;;;;3.83;2.20;;;;;;;;;;5014501;28;20033;-59
2022/06/07 06:19:08;;;;;;;4.70;1.80;;;;;;;;;;5014035;28;20057;-59
2022/06/07 06:21:39;;;;;;;3.30;1.80;;;;;;;;;;5013589;28;20028;-59
2022/06/07 06:24:08;;;;;;;3.92;1.60;;;;;;;;;;5014434;28;20394;-60
2022/06/07 06:26:35;;;;;;;5.32;1.83;;;;;;;;;;5014105;28;20117;-59
2022/06/07 06:29:03;;;;;;;6.43;2.42;;;;;;;;;;5014007;28;20487;-59
2022/06/07 06:31:30;;;;;;;5.05;1.90;;;;;;;;;;5013948;28;20076;-59
2022/06/07 06:33:57;;;;;;;6.38;2.20;;;;;;;;;;5014064;28;20119;-59
2022/06/07 06:36:26;;;;;;;3.78;1.85;;;;;;;;;;5013820;28;20050;-59
2022/06/07 06:38:54;;;;;;;4.97;1.60;;;;;;;;;;5013190;28;20391;-60
2022/06/07 06:41:22;;;;;;;4.43;1.85;;;;;;;;;;5013323;28;20547;-60
2022/06/07 06:43:50;;;;;;;2.95;1.67;;;;;;;;;;5014178;28;20491;-60
2022/06/07 06:46:19;;;;;;;6.28;1.70;;;;;;;;;;5014217;28;20030;-60
2022/06/07 06:48:46;;;;;;;7.70;1.90;;;;;;;;;;5013141;28;20137;-60
2022/06/07 06:51:14;;;;;;;4.95;1.63;;;;;;;;;;5013321;28;20030;-60
2022/06/07 06:53:42;;;;;;;3.10;1.42;;;;;;;;;;5013952;28;20116;-59
2022/06/07 06:56:10;;;;;;;4.03;1.90;;;;;;;;;;5013971;28;20038;-60
2022/06/07 06:58:37;;;;;;;4.45;1.90;;;;;;;;;;5013632;28;20074;-59
2022/06/07 07:01:23;;;;;;;6.30;1.83;;;;;;;;;;5013364;28;20038;-59
2022/06/07 07:03:50;;;;;;;4.32;1.52;;;;;;;;;;5013846;28;20032;-60
2022/06/07 07:06:18;;;;;;;5.03;2.08;;;;;;;;;;5012908;28;20026;-59
2022/06/07 07:08:45;;;;;;;3.60;1.92;;;;;;;;;;5013780;28;20094;-59
2022/06/07 07:11:24;;;;;;;3.40;1.58;;;;;;;;;;5013215;28;20026;-60
2022/06/07 07:13:53;;;;;;;3.58;1.60;;;;;;;;;;5012941;28;20423;-60
2022/06/07 07:16:21;;;;;;;3.08;1.52;;;;;;;;;;5013145;28;20045;-59
2022/06/07 07:18:49;;;;;;;6.75;1.80;;;;;;;;;;5012893;28;20030;-59
2022/06/07 07:21:18;;;;;;;3.20;1.65;;;;;;;;;;5013291;28;20124;-60
2022/06/07 07:23:44;;;;;;;4.82;1.73;;;;;;;;;;5012279;28;20042;-60
2022/06/07 07:26:18;;;;;;;2.80;1.50;;;;;;;;;;5013631;28;20030;-60
2022/06/07 07:28:45;;;;;;;2.75;1.52;;;;;;;;;;5013190;28;20030;-60
2022/06/07 07:31:16;;;;;;;3.70;1.48;;;;;;;;;;5012508;28;20091;-60
2022/06/07 07:33:43;;;;;;;4.25;1.70;;;;;;;;;;5013208;28;20483;-60
2022/06/07 07:36:11;;;;;;;3.55;1.80;;;;;;;;;;5012355;28;20566;-60
2022/06/07 07:38:39;;;;;;;6.78;1.70;;;;;;;;;;5013331;28;20051;-60
2022/06/07 07:41:14;;;;;;;4.50;1.70;;;;;;;;;;5012637;28;20022;-60
2022/06/07 07:43:42;;;;;;;2.80;1.77;;;;;;;;;;5012734;28;20510;-60
2022/06/07 07:46:09;;;;;;;3.97;1.77;;;;;;;;;;5012055;28;20044;-60
2022/06/07 07:48:36;;;;;;;4.80;1.65;;;;;;;;;;5012818;28;20117;-60
2022/06/07 07:51:08;;;;;;;4.85;1.63;;;;;;;;;;5012409;28;20077;-60
2022/06/07 07:53:35;;;;;;;5.30;1.53;;;;;;;;;;5012583;28;20577;-60
2022/06/07 07:56:02;;;;;;;5.00;1.60;;;;;;;;;;5012939;28;20257;-60
2022/06/07 07:58:29;;;;;;;4.18;1.63;;;;;;;;;;5012445;28;20075;-59
2022/06/07 08:00:56;;;;;;;5.18;1.50;;;;;;;;;;5012758;28;20018;-60
2022/06/07 08:03:23;;;;;;;3.55;1.48;;;;;;;;;;5011851;28;20034;-60
2022/06/07 08:05:50;;;;;;;3.72;1.77;;;;;;;;;;5012512;28;20436;-60
2022/06/07 08:08:17;;;;;;;5.55;1.80;;;;;;;;;;5012016;28;20033;-60
2022/06/07 08:10:44;;;;;;;4.07;1.80;;;;;;;;;;5011928;28;20030;-59
2022/06/07 08:13:11;;;;;;;3.83;1.83;;;;;;;;;;5012115;28;20116;-59
2022/06/07 08:15:38;;;;;;;4.25;1.50;;;;;;;;;;5012391;28;20042;-60
2022/06/07 08:18:05;;;;;;;3.83;1.45;;;;;;;;;;5011178;28;20064;-60
2022/06/07 08:20:36;;;;;;;5.80;1.38;;;;;;;;;;5012260;28;20028;-60
2022/06/07 08:23:04;;;;;;;5.00;1.83;;;;;;;;;;5010952;28;20112;-60
2022/06/07 08:25:31;;;;;;;3.50;1.50;;;;;;;;;;5011703;28;20028;-60
2022/06/07 08:27:58;;;;;;;4.07;1.60;;;;;;;;;;5011395;28;20032;-60
2022/06/07 08:30:25;;;;;;;4.18;1.60;;;;;;;;;;5012312;28;20026;-60
2022/06/07 08:32:52;;;;;;;6.07;1.75;;;;;;;;;;5011411;28;20400;-60
2022/06/07 08:38:05;;;;;;;3.10;1.50;;;;;;;;;;5012335;28;20109;-59
2022/06/07 08:40:34;;;;;;;2.55;1.30;;;;;;;;;;5012044;28;20029;-60
2022/06/07 08:43:06;;;;;;;3.30;1.60;;;;;;;;;;5012130;28;20022;-60
2022/06/07 08:45:38;;;;;;;3.80;1.70;;;;;;;;;;5011297;28;20034;-60
2022/06/07 08:48:07;;;;;;;7.38;1.60;;;;;;;;;;5011641;28;20416;-59
2022/06/07 08:50:36;;;;;;;3.63;1.45;;;;;;;;;;5011456;28;20061;-59
2022/06/07 08:53:16;;;;;;;3.63;1.60;;;;;;;;;;5011872;28;20247;-59
2022/06/07 08:55:52;;;;;;;1.95;1.10;;;;;;;;;;4993722;28;20037;-59
2022/06/07 08:58:23;;;;;;;2.92;1.40;;;;;;;;;;5012409;28;20037;-57
2022/06/07 09:00:52;;;;;;;3.30;1.60;;;;;;;;;;5011615;28;20033;-59
2022/06/07 09:03:28;;;;;;;4.43;1.67;;;;;;;;;;5011785;28;20061;-59
2022/06/07 09:05:56;;;;;;;3.42;1.70;;;;;;;;;;5011879;28;20033;-59
2022/06/07 09:08:25;;;;;;;2.90;1.63;;;;;;;;;;5011417;28;20021;-58
2022/06/07 09:13:38;;;;;;;4.53;1.58;;;;;;;;;;5011251;28;20052;-59
2022/06/07 09:16:05;;;;;;;4.60;2.20;;;;;;;;;;5011527;28;20058;-59
2022/06/07 09:18:33;;;;;;;4.55;1.45;;;;;;;;;;5011711;28;20310;-59
2022/06/07 09:21:04;;;;;;;3.45;1.50;;;;;;;;;;5011453;28;20030;-59
2022/06/07 09:23:33;;;;;;;4.15;1.65;;;;;;;;;;5011685;28;20400;-59
2022/06/07 09:26:13;;;;;;;3.90;1.80;;;;;;;;;;5011314;28;20026;-59
2022/06/07 09:28:40;;;;;;;2.58;1.40;;;;;;;;;;5011763;28;20025;-59
2022/06/07 09:31:10;;;;;;;5.43;1.88;;;;;;;;;;5011508;28;20022;-59
2022/06/07 09:33:56;;;;;;;4.70;1.55;;;;;;;;;;5011592;28;20026;-59
2022/06/07 09:36:30;;;;;;;3.40;1.38;;;;;;;;;;5014774;28;20038;-59
2022/06/07 09:39:00;;;;;;;3.22;1.27;;;;;;;;;;5015524;28;20030;-59
2022/06/07 09:41:37;;;;;;;2.75;1.58;;;;;;;;;;5015257;28;20080;-59
2022/06/07 09:44:13;;;;;;;2.53;1.40;;;;;;;;;;5014568;28;20026;-58
2022/06/07 09:46:42;;;;;;;5.82;1.83;;;;;;;;;;5015445;28;20029;-59
2022/06/07 09:49:24;;;;;;;6.35;1.65;;;;;;;;;;5014265;28;20117;-59
2022/06/07 09:51:51;;;;;;;4.05;1.48;;;;;;;;;;5014656;28;20069;-59
2022/06/07 09:54:20;;;;;;;4.80;1.45;;;;;;;;;;5014666;28;20038;-59
2022/06/07 09:57:04;;;;;;;4.35;1.77;;;;;;;;;;5014414;28;20096;-59
2022/06/07 09:59:43;;;;;;;3.08;1.23;;;;;;;;;;5015156;28;20030;-59
2022/06/07 10:02:25;;;;;;;2.53;1.13;;;;;;;;;;5013953;28;20100;-59
2022/06/07 10:04:57;;;;;;;4.13;1.40;;;;;;;;;;5015125;28;20050;-59
2022/06/07 10:07:31;;;;;;;3.78;1.58;;;;;;;;;;5014452;28;20033;-58
2022/06/07 10:10:24;;;;;;;3.80;1.30;;;;;;;;;;5014738;28;20026;-59
2022/06/07 10:12:54;;;;;;;5.30;1.60;;;;;;;;;;4991674;28;20052;-59
2022/06/07 10:15:30;;;;;;;3.90;1.60;;;;;;;;;;5012784;28;20415;-58
2022/06/07 10:18:07;;;;;;;7.72;1.80;;;;;;;;;;5014006;28;20450;-60
2022/06/07 10:20:34;;;;;;;6.00;1.70;;;;;;;;;;5009934;28;20435;-60
2022/06/07 10:23:13;;;;;;;6.03;1.63;;;;;;;;;;5014004;28;20037;-60
2022/06/07 10:26:19;;;;;;;4.63;1.65;;;;;;;;;;5013896;28;20048;-59
2022/06/07 10:28:46;;;;;;;5.40;1.98;;;;;;;;;;4952564;29;20046;-59
2022/06/07 10:31:36;;;;;;;4.03;1.98;;;;;;;;;;4952964;29;20893;-59
2022/06/07 10:34:05;;;;;;;8.88;2.15;;;;;;;;;;4966918;28;20046;-60
2022/06/07 10:36:32;;;;;;;8.35;2.33;;;;;;;;;;4994724;28;20050;-59
2022/06/07 10:38:59;;;;;;;11.80;2.15;;;;;;;;;;4993719;28;20033;-60
2022/06/07 10:41:26;;;;;;;8.18;2.35;;;;;;;;;;4994863;28;20036;-59
2022/06/07 10:44:04;;;;;;;9.25;2.20;;;;;;;;;;5001385;28;20029;-59
2022/06/07 10:46:31;;;;;;;5.78;1.92;;;;;;;;;;4993852;28;20133;-60
2022/06/07 10:49:05;;;;;;;6.22;2.30;;;;;;;;;;4994569;28;20592;-60
2022/06/07 10:54:38;;;;;;;7.28;2.33;;;;;;;;;;4971769;28;20412;-60
2022/06/07 10:57:26;;;;;;;6.80;2.10;;;;;;;;;;4993371;28;20096;-60
2022/06/07 10:59:53;;;;;;;4.75;2.42;;;;;;;;;;4994336;28;20026;-60
2022/06/07 11:02:27;;;;;;;7.68;2.20;;;;;;;;;;4993514;28;20065;-60
2022/06/07 11:10:44;;;;;;;7.93;2.08;;;;;;;;;;4993638;28;20042;-59
2022/06/07 11:13:20;;;;;;;12.75;3.00;;;;;;;;;;4993792;28;20034;-60
2022/06/07 11:15:47;;;;;;;7.82;2.28;;;;;;;;;;4992703;28;20528;-60
2022/06/07 11:18:17;;;;;;;6.30;2.30;;;;;;;;;;4993734;28;20035;-60
2022/06/07 11:20:51;;;;;;;25.73;3.60;;;;;;;;;;4993631;28;20057;-60
2022/06/07 11:23:29;;;;;;;19.02;3.20;;;;;;;;;;4993286;28;20026;-59
2022/06/07 11:26:07;;;;;;;38.75;3.40;;;;;;;;;;4993635;28;20475;-60
2022/06/07 11:28:40;;;;;;;31.15;3.30;;;;;;;;;;4993025;28;20034;-59
2022/06/07 11:31:33;;;;;;;245.65;24.77;;;;;;;;;;4993765;28;20057;-61
2022/06/07 11:34:23;;;;;;;678.72;41.85;;;;;;;;;;4956135;28;20404;-61
2022/06/07 11:36:52;;;;;;;197.13;15.60;;;;;;;;;;4981140;28;20038;-60
2022/06/07 11:39:22;;;;;;;286.33;23.90;;;;;;;;;;4993094;28;20105;-60
2022/06/07 11:41:51;;;;;;;228.10;18.58;;;;;;;;;;4992954;28;20451;-60
2022/06/07 11:44:18;;;;;;;174.20;17.02;;;;;;;;;;4975353;28;20030;-61
2022/06/07 11:47:09;;;;;;;136.45;15.82;;;;;;;;;;4993390;28;20041;-60
2022/06/07 11:49:41;;;;;;;121.30;15.20;;;;;;;;;;4981280;28;20112;-60
2022/06/07 11:52:14;;;;;;;108.78;15.15;;;;;;;;;;4992779;28;20027;-61
2022/06/07 11:54:48;;;;;;;121.18;15.13;;;;;;;;;;4992614;28;20072;-59
2022/06/07 11:57:24;;;;;;;51.28;8.60;;;;;;;;;;4991650;28;20053;-59
2022/06/07 11:59:53;;;;;;;293.45;35.00;;;;;;;;;;4993100;28;20034;-60
2022/06/07 12:02:20;;;;;;;138.68;18.42;;;;;;;;;;4992957;28;20088;-60
2022/06/07 12:04:48;;;;;;;116.15;16.77;;;;;;;;;;4992551;28;20093;-59
2022/06/07 12:07:17;;;;;;;82.75;14.45;;;;;;;;;;4992621;28;20396;-59
2022/06/07 12:09:51;;;;;;;80.30;14.13;;;;;;;;;;4992566;28;20027;-59
2022/06/07 12:12:31;;;;;;;104.97;16.48;;;;;;;;;;4992105;28;20102;-59
2022/06/07 12:15:19;;;;;;;102.47;16.30;;;;;;;;;;4992376;28;20058;-59
2022/06/07 12:17:55;;;;;;;104.55;15.80;;;;;;;;;;4992390;28;20035;-59
2022/06/07 12:20:27;;;;;;;102.57;16.75;;;;;;;;;;4992625;28;20027;-58
2022/06/07 12:22:56;;;;;;;100.95;16.83;;;;;;;;;;4991884;28;20023;-56
2022/06/07 12:25:24;;;;;;;89.97;16.00;;;;;;;;;;4975354;28;20480;-58
2022/06/07 12:27:53;;;;;;;121.20;17.27;;;;;;;;;;4992281;28;20065;-55
2022/06/07 12:30:24;;;;;;;76.57;16.40;;;;;;;;;;4992478;28;20050;-58
2022/06/07 12:32:51;;;;;;;76.65;14.77;;;;;;;;;;4992318;28;20038;-58
2022/06/07 12:35:29;;;;;;;98.78;16.08;;;;;;;;;;4992560;28;20117;-59
2022/06/07 12:37:58;;;;;;;91.57;15.68;;;;;;;;;;4992061;28;20093;-58
2022/06/07 12:40:27;;;;;;;88.85;15.93;;;;;;;;;;4992223;28;20477;-59
2022/06/07 12:42:53;;;;;;;93.97;15.18;;;;;;;;;;4991970;28;20030;-60
2022/06/07 12:45:26;;;;;;;79.78;14.40;;;;;;;;;;4992375;28;20113;-60
2022/06/07 12:48:02;;;;;;;88.00;15.25;;;;;;;;;;4992489;28;20101;-60
2022/06/07 12:50:32;;;;;;;66.65;13.52;;;;;;;;;;4993674;28;20432;-59
2022/06/07 12:53:04;;;;;;;77.50;14.48;;;;;;;;;;4993376;28;20027;-57
2022/06/07 12:55:32;;;;;;;74.15;14.45;;;;;;;;;;4992720;28;20030;-59
2022/06/07 12:58:01;;;;;;;71.47;13.30;;;;;;;;;;4992167;28;20023;-58
2022/06/07 13:00:34;;;;;;;81.80;14.30;;;;;;;;;;4992681;28;20049;-59
2022/06/07 13:03:14;;;;;;;65.07;13.40;;;;;;;;;;4992065;28;20061;-58
2022/06/07 13:05:42;;;;;;;63.88;13.05;;;;;;;;;;4992662;28;20096;-60
2022/06/07 13:08:17;;;;;;;54.05;11.90;;;;;;;;;;4993497;28;20034;-59
2022/06/07 13:10:45;;;;;;;53.97;12.05;;;;;;;;;;4996327;28;20089;-58
2022/06/07 13:13:26;;;;;;;55.17;11.60;;;;;;;;;;4996567;28;20033;-60
2022/06/07 13:16:00;;;;;;;50.30;11.60;;;;;;;;;;4995879;28;20054;-60
2022/06/07 13:18:31;;;;;;;59.83;12.50;;;;;;;;;;4996610;28;20027;-59
2022/06/07 13:21:11;;;;;;;51.50;11.30;;;;;;;;;;5000233;28;20073;-59
2022/06/07 13:23:40;;;;;;;58.38;10.85;;;;;;;;;;5035466;28;20037;-59
2022/06/07 13:26:21;;;;;;;63.90;12.18;;;;;;;;;;5035442;28;20506;-59
2022/06/07 13:28:55;;;;;;;49.03;11.35;;;;;;;;;;5034966;28;20029;-59
2022/06/07 13:31:31;;;;;;;49.45;9.85;;;;;;;;;;5035398;28;20040;-59
2022/06/07 13:34:02;;;;;;;45.90;10.10;;;;;;;;;;5034728;28;20033;-60
2022/06/07 13:36:35;;;;;;;44.95;10.35;;;;;;;;;;5035419;28;20017;-59
2022/06/07 13:39:02;;;;;;;44.55;9.93;;;;;;;;;;5034817;28;20030;-60
2022/06/07 13:41:30;;;;;;;42.63;10.07;;;;;;;;;;5032699;28;20035;-59
2022/06/07 13:44:00;;;;;;;55.70;10.38;;;;;;;;;;5032017;28;20556;-60
2022/06/07 13:46:29;;;;;;;43.63;9.30;;;;;;;;;;5014243;28;20083;-59
2022/06/07 13:54:28;;;;;;;35.90;8.30;;;;;;;;;;5014638;28;20463;-59
2022/06/07 13:56:55;;;;;;;32.00;8.45;;;;;;;;;;5014101;28;20029;-59
2022/06/07 13:59:22;;;;;;;42.78;9.50;;;;;;;;;;5014480;28;20040;-59
2022/06/07 14:01:49;;;;;;;30.60;7.85;;;;;;;;;;5014437;28;20022;-59
2022/06/07 14:04:17;;;;;;;45.40;9.15;;;;;;;;;;5013477;28;20057;-57
2022/06/07 14:06:45;;;;;;;33.80;8.13;;;;;;;;;;5014435;28;20503;-58
2022/06/07 14:09:22;;;;;;;35.35;8.27;;;;;;;;;;5013728;28;20076;-58
2022/06/07 14:11:50;;;;;;;44.08;8.10;;;;;;;;;;5013377;28;20076;-59
2022/06/07 14:14:18;;;;;;;40.35;7.57;;;;;;;;;;5013956;28;20049;-60
2022/06/07 14:16:51;;;;;;;33.13;7.68;;;;;;;;;;5013217;28;20049;-59
2022/06/07 14:19:32;;;;;;;30.75;7.10;;;;;;;;;;5013487;28;20030;-58
2022/06/07 14:22:00;;;;;;;38.95;8.10;;;;;;;;;;5013213;28;20026;-59
2022/06/07 14:24:28;;;;;;;44.25;8.05;;;;;;;;;;5013567;28;20400;-59
2022/06/07 14:26:55;;;;;;;40.55;7.55;;;;;;;;;;5013366;28;20030;-60
2022/06/07 14:29:22;;;;;;;35.42;7.47;;;;;;;;;;5013650;28;20026;-59
2022/06/07 14:31:50;;;;;;;35.58;7.63;;;;;;;;;;5020711;28;20094;-60
2022/06/07 14:34:19;;;;;;;32.65;6.95;;;;;;;;;;5032947;28;20048;-56
2022/06/07 14:36:46;;;;;;;46.03;7.97;;;;;;;;;;5033273;28;20033;-59
2022/06/07 14:39:17;;;;;;;40.83;8.70;;;;;;;;;;5033200;28;20021;-59
2022/06/07 14:41:45;;;;;;;60.35;9.50;;;;;;;;;;5032966;28;20029;-57
2022/06/07 14:44:12;;;;;;;55.00;8.27;;;;;;;;;;5033175;28;20100;-59
2022/06/07 14:46:41;;;;;;;58.60;10.65;;;;;;;;;;5031763;28;20033;-58
2022/06/07 14:49:14;;;;;;;63.33;9.07;;;;;;;;;;5032902;28;20033;-57
2022/06/07 14:51:42;;;;;;;41.15;7.60;;;;;;;;;;5031982;28;20050;-57
2022/06/07 14:54:35;;;;;;;51.70;7.60;;;;;;;;;;5015325;28;21239;-59
2022/06/07 14:57:03;;;;;;;62.95;8.68;;;;;;;;;;5028001;28;20087;-61
2022/06/07 14:59:30;;;;;;;74.60;10.02;;;;;;;;;;5033223;28;20029;-60
2022/06/07 15:01:59;;;;;;;74.78;10.18;;;;;;;;;;5033063;28;20510;-60
2022/06/07 15:04:28;;;;;;;70.30;10.52;;;;;;;;;;5032429;28;20033;-59
2022/06/07 15:06:55;;;;;;;76.68;9.60;;;;;;;;;;5033232;28;20018;-59
2022/06/07 15:09:26;;;;;;;73.03;10.18;;;;;;;;;;5032464;28;20022;-59
2022/06/07 15:11:53;;;;;;;78.28;10.05;;;;;;;;;;5032632;28;20025;-57
2022/06/07 15:14:21;;;;;;;59.55;10.02;;;;;;;;;;5032434;28;20038;-59
2022/06/07 15:16:49;;;;;;;73.55;10.93;;;;;;;;;;5032667;28;20051;-58
2022/06/07 15:19:18;;;;;;;48.95;10.00;;;;;;;;;;5032705;28;20026;-59